sensor_id;sensor_type;location;lat;lon;timestamp;temperature;humidity
11079;DHT22;5592;49.234;7.268;2023-05-27T00:00:04;12.40;99.90
11079;DHT22;5592;49.234;7.268;2023-05-27T00:02:31;12.40;99.90
11079;DHT22;5592;49.234;7.268;2023-05-27T00:04:57;12.40;99.90
11079;DHT22;5592;49.234;7.268;2023-05-27T00:07:23;12.40;99.90
11079;DHT22;5592;49.234;7.268;2023-05-27T00:09:48;12.40;99.90
11079;DHT22;5592;49.234;7.268;2023-05-27T00:12:14;12.40;99.90
11079;DHT22;5592;49.234;7.268;2023-05-27T00:14:40;12.40;99.90
11079;DHT22;5592;49.234;7.268;2023-05-27T00:17:06;12.40;99.90
11079;DHT22;5592;49.234;7.268;2023-05-27T00:19:34;12.30;99.90
11079;DHT22;5592;49.234;7.268;2023-05-27T00:22:00;12.30;99.90
11079;DHT22;5592;49.234;7.268;2023-05-27T00:24:25;12.20;99.90
11079;DHT22;5592;49.234;7.268;2023-05-27T00:26:51;12.20;99.90
11079;DHT22;5592;49.234;7.268;2023-05-27T00:29:17;12.10;99.90
11079;DHT22;5592;49.234;7.268;2023-05-27T00:31:43;12.00;99.90
11079;DHT22;5592;49.234;7.268;2023-05-27T00:34:08;12.00;99.90
11079;DHT22;5592;49.234;7.268;2023-05-27T00:36:34;12.00;99.90
11079;DHT22;5592;49.234;7.268;2023-05-27T00:39:01;11.90;99.90
11079;DHT22;5592;49.234;7.268;2023-05-27T00:41:27;12.00;99.90
11079;DHT22;5592;49.234;7.268;2023-05-27T00:43:53;11.90;99.90
11079;DHT22;5592;49.234;7.268;2023-05-27T00:46:19;11.90;99.90
11079;DHT22;5592;49.234;7.268;2023-05-27T00:48:46;11.80;99.90
11079;DHT22;5592;49.234;7.268;2023-05-27T00:51:12;11.60;99.90
11079;DHT22;5592;49.234;7.268;2023-05-27T00:53:42;11.50;99.90
11079;DHT22;5592;49.234;7.268;2023-05-27T00:56:11;11.40;99.90
11079;DHT22;5592;49.234;7.268;2023-05-27T00:58:41;11.30;99.90
11079;DHT22;5592;49.234;7.268;2023-05-27T01:01:07;11.20;99.90
11079;DHT22;5592;49.234;7.268;2023-05-27T01:03:34;11.10;99.90
11079;DHT22;5592;49.234;7.268;2023-05-27T01:14:43;10.50;99.90
11079;DHT22;5592;49.234;7.268;2023-05-27T01:17:11;10.40;99.90
11079;DHT22;5592;49.234;7.268;2023-05-27T01:19:42;10.30;99.90
11079;DHT22;5592;49.234;7.268;2023-05-27T01:22:12;10.20;99.90
11079;DHT22;5592;49.234;7.268;2023-05-27T01:24:38;10.10;99.90
11079;DHT22;5592;49.234;7.268;2023-05-27T01:27:07;10.00;99.90
11079;DHT22;5592;49.234;7.268;2023-05-27T01:29:36;10.00;99.90
11079;DHT22;5592;49.234;7.268;2023-05-27T01:32:16;10.00;99.90
11079;DHT22;5592;49.234;7.268;2023-05-27T01:34:53;9.90;99.90
11079;DHT22;5592;49.234;7.268;2023-05-27T01:37:24;9.80;99.90
11079;DHT22;5592;49.234;7.268;2023-05-27T01:39:52;9.80;99.90
11079;DHT22;5592;49.234;7.268;2023-05-27T01:42:19;9.80;99.90
11079;DHT22;5592;49.234;7.268;2023-05-27T01:44:45;9.80;99.90
11079;DHT22;5592;49.234;7.268;2023-05-27T01:47:11;9.70;99.90
11079;DHT22;5592;49.234;7.268;2023-05-27T01:49:36;9.80;99.90
11079;DHT22;5592;49.234;7.268;2023-05-27T01:52:05;9.90;99.90
11079;DHT22;5592;49.234;7.268;2023-05-27T01:54:31;9.80;99.90
11079;DHT22;5592;49.234;7.268;2023-05-27T01:56:57;9.90;99.90
11079;DHT22;5592;49.234;7.268;2023-05-27T01:59:22;9.80;99.90
11079;DHT22;5592;49.234;7.268;2023-05-27T02:01:48;9.70;99.90
11079;DHT22;5592;49.234;7.268;2023-05-27T02:04:14;9.60;99.90
11079;DHT22;5592;49.234;7.268;2023-05-27T02:06:39;9.60;99.90
11079;DHT22;5592;49.234;7.268;2023-05-27T02:09:05;9.50;99.90
11079;DHT22;5592;49.234;7.268;2023-05-27T02:11:32;9.50;99.90
11079;DHT22;5592;49.234;7.268;2023-05-27T02:13:57;9.50;99.90
11079;DHT22;5592;49.234;7.268;2023-05-27T02:16:24;9.50;99.90
11079;DHT22;5592;49.234;7.268;2023-05-27T02:18:50;9.60;99.90
11079;DHT22;5592;49.234;7.268;2023-05-27T02:21:16;9.70;99.90
11079;DHT22;5592;49.234;7.268;2023-05-27T02:23:42;9.80;99.90
11079;DHT22;5592;49.234;7.268;2023-05-27T02:26:08;9.90;99.90
11079;DHT22;5592;49.234;7.268;2023-05-27T02:28:33;10.00;99.90
11079;DHT22;5592;49.234;7.268;2023-05-27T02:30:59;9.90;99.90
11079;DHT22;5592;49.234;7.268;2023-05-27T02:33:28;9.80;99.90
11079;DHT22;5592;49.234;7.268;2023-05-27T02:35:54;9.70;99.90
11079;DHT22;5592;49.234;7.268;2023-05-27T02:38:19;9.70;99.90
11079;DHT22;5592;49.234;7.268;2023-05-27T02:40:45;9.70;99.90
11079;DHT22;5592;49.234;7.268;2023-05-27T02:43:11;9.60;99.90
11079;DHT22;5592;49.234;7.268;2023-05-27T02:45:36;9.70;99.90
11079;DHT22;5592;49.234;7.268;2023-05-27T02:48:03;9.70;99.90
11079;DHT22;5592;49.234;7.268;2023-05-27T02:50:28;9.70;99.90
11079;DHT22;5592;49.234;7.268;2023-05-27T02:52:54;9.60;99.90
11079;DHT22;5592;49.234;7.268;2023-05-27T02:55:20;9.50;99.90
11079;DHT22;5592;49.234;7.268;2023-05-27T02:57:46;9.40;99.90
11079;DHT22;5592;49.234;7.268;2023-05-27T03:00:12;9.30;99.90
11079;DHT22;5592;49.234;7.268;2023-05-27T03:02:39;9.10;99.90
11079;DHT22;5592;49.234;7.268;2023-05-27T03:05:05;9.10;99.90
11079;DHT22;5592;49.234;7.268;2023-05-27T03:07:30;9.00;99.90
11079;DHT22;5592;49.234;7.268;2023-05-27T03:09:57;8.90;99.90
11079;DHT22;5592;49.234;7.268;2023-05-27T03:12:23;8.70;99.90
11079;DHT22;5592;49.234;7.268;2023-05-27T03:14:49;8.70;99.90
11079;DHT22;5592;49.234;7.268;2023-05-27T03:17:15;8.90;99.90
11079;DHT22;5592;49.234;7.268;2023-05-27T03:19:40;9.10;99.90
11079;DHT22;5592;49.234;7.268;2023-05-27T03:22:07;9.10;99.90
11079;DHT22;5592;49.234;7.268;2023-05-27T03:24:35;9.10;99.90
11079;DHT22;5592;49.234;7.268;2023-05-27T03:27:01;9.10;99.90
11079;DHT22;5592;49.234;7.268;2023-05-27T03:29:29;9.10;99.90
11079;DHT22;5592;49.234;7.268;2023-05-27T03:31:57;9.10;99.90
11079;DHT22;5592;49.234;7.268;2023-05-27T03:34:23;9.00;99.90
11079;DHT22;5592;49.234;7.268;2023-05-27T03:36:49;9.00;99.90
11079;DHT22;5592;49.234;7.268;2023-05-27T03:39:16;8.90;99.90
11079;DHT22;5592;49.234;7.268;2023-05-27T03:41:42;9.00;99.90
11079;DHT22;5592;49.234;7.268;2023-05-27T03:44:08;9.10;99.90
11079;DHT22;5592;49.234;7.268;2023-05-27T03:46:35;9.10;99.90
11079;DHT22;5592;49.234;7.268;2023-05-27T03:49:01;9.20;99.90
11079;DHT22;5592;49.234;7.268;2023-05-27T03:51:26;9.20;99.90
11079;DHT22;5592;49.234;7.268;2023-05-27T03:53:52;9.10;99.90
11079;DHT22;5592;49.234;7.268;2023-05-27T03:56:18;9.10;99.90
11079;DHT22;5592;49.234;7.268;2023-05-27T03:58:43;9.10;99.90
11079;DHT22;5592;49.234;7.268;2023-05-27T04:01:09;9.00;99.90
11079;DHT22;5592;49.234;7.268;2023-05-27T04:03:35;9.00;99.90
11079;DHT22;5592;49.234;7.268;2023-05-27T04:06:02;9.00;99.90
11079;DHT22;5592;49.234;7.268;2023-05-27T04:08:28;9.00;99.90
11079;DHT22;5592;49.234;7.268;2023-05-27T04:10:54;9.00;99.90
11079;DHT22;5592;49.234;7.268;2023-05-27T04:13:20;9.00;99.90
11079;DHT22;5592;49.234;7.268;2023-05-27T04:15:46;9.10;99.90
11079;DHT22;5592;49.234;7.268;2023-05-27T04:18:12;9.20;99.90
11079;DHT22;5592;49.234;7.268;2023-05-27T04:20:39;9.20;99.90
11079;DHT22;5592;49.234;7.268;2023-05-27T04:23:06;9.30;99.90
11079;DHT22;5592;49.234;7.268;2023-05-27T04:25:32;9.40;99.90
11079;DHT22;5592;49.234;7.268;2023-05-27T04:27:59;9.50;99.90
11079;DHT22;5592;49.234;7.268;2023-05-27T04:30:25;9.50;99.90
11079;DHT22;5592;49.234;7.268;2023-05-27T04:32:51;9.70;99.90
11079;DHT22;5592;49.234;7.268;2023-05-27T04:35:18;9.80;99.90
11079;DHT22;5592;49.234;7.268;2023-05-27T04:37:43;9.90;99.90
11079;DHT22;5592;49.234;7.268;2023-05-27T04:40:10;10.20;99.90
11079;DHT22;5592;49.234;7.268;2023-05-27T04:42:36;10.40;99.90
11079;DHT22;5592;49.234;7.268;2023-05-27T04:45:06;10.70;99.90
11079;DHT22;5592;49.234;7.268;2023-05-27T04:47:35;11.00;99.90
11079;DHT22;5592;49.234;7.268;2023-05-27T04:50:03;11.40;99.90
11079;DHT22;5592;49.234;7.268;2023-05-27T04:52:29;11.90;99.90
11079;DHT22;5592;49.234;7.268;2023-05-27T04:54:55;12.60;99.90
11079;DHT22;5592;49.234;7.268;2023-05-27T04:57:23;13.40;99.90
11079;DHT22;5592;49.234;7.268;2023-05-27T04:59:49;14.20;99.90
11079;DHT22;5592;49.234;7.268;2023-05-27T05:02:37;14.90;99.90
11079;DHT22;5592;49.234;7.268;2023-05-27T05:05:07;15.80;99.90
11079;DHT22;5592;49.234;7.268;2023-05-27T05:07:34;16.50;99.90
11079;DHT22;5592;49.234;7.268;2023-05-27T05:10:04;17.10;99.90
11079;DHT22;5592;49.234;7.268;2023-05-27T05:12:33;17.80;99.90
11079;DHT22;5592;49.234;7.268;2023-05-27T05:14:58;18.30;99.90
11079;DHT22;5592;49.234;7.268;2023-05-27T05:17:24;18.70;99.90
11079;DHT22;5592;49.234;7.268;2023-05-27T05:19:51;19.40;99.90
11079;DHT22;5592;49.234;7.268;2023-05-27T05:22:17;19.90;99.90
11079;DHT22;5592;49.234;7.268;2023-05-27T05:24:49;20.40;99.90
11079;DHT22;5592;49.234;7.268;2023-05-27T05:27:15;20.90;99.90
11079;DHT22;5592;49.234;7.268;2023-05-27T05:29:41;21.20;99.90
11079;DHT22;5592;49.234;7.268;2023-05-27T05:32:08;21.40;99.90
11079;DHT22;5592;49.234;7.268;2023-05-27T05:34:34;22.00;99.90
11079;DHT22;5592;49.234;7.268;2023-05-27T05:36:59;22.20;99.90
11079;DHT22;5592;49.234;7.268;2023-05-27T05:39:25;22.40;99.90
11079;DHT22;5592;49.234;7.268;2023-05-27T05:41:50;22.60;99.90
11079;DHT22;5592;49.234;7.268;2023-05-27T05:44:17;22.80;99.90
11079;DHT22;5592;49.234;7.268;2023-05-27T05:46:42;22.70;99.90
11079;DHT22;5592;49.234;7.268;2023-05-27T05:49:08;22.80;99.90
11079;DHT22;5592;49.234;7.268;2023-05-27T05:51:34;23.00;99.90
11079;DHT22;5592;49.234;7.268;2023-05-27T05:54:00;23.40;98.30
11079;DHT22;5592;49.234;7.268;2023-05-27T05:56:26;23.50;97.70
11079;DHT22;5592;49.234;7.268;2023-05-27T05:58:52;23.40;97.50
11079;DHT22;5592;49.234;7.268;2023-05-27T06:01:18;23.80;97.60
11079;DHT22;5592;49.234;7.268;2023-05-27T06:03:43;24.10;96.20
11079;DHT22;5592;49.234;7.268;2023-05-27T06:06:09;24.60;95.10
11079;DHT22;5592;49.234;7.268;2023-05-27T06:08:35;24.80;94.10
11079;DHT22;5592;49.234;7.268;2023-05-27T06:11:01;25.00;94.50
11079;DHT22;5592;49.234;7.268;2023-05-27T06:13:26;25.40;93.00
11079;DHT22;5592;49.234;7.268;2023-05-27T06:15:52;25.70;92.40
11079;DHT22;5592;49.234;7.268;2023-05-27T06:18:17;26.00;91.80
11079;DHT22;5592;49.234;7.268;2023-05-27T06:20:43;26.20;91.30
11079;DHT22;5592;49.234;7.268;2023-05-27T06:23:09;26.40;92.10
11079;DHT22;5592;49.234;7.268;2023-05-27T06:25:34;27.00;90.00
11079;DHT22;5592;49.234;7.268;2023-05-27T06:28:00;27.00;88.90
11079;DHT22;5592;49.234;7.268;2023-05-27T06:30:27;26.90;87.60
11079;DHT22;5592;49.234;7.268;2023-05-27T06:32:53;27.30;87.60
11079;DHT22;5592;49.234;7.268;2023-05-27T06:35:18;27.70;86.60
11079;DHT22;5592;49.234;7.268;2023-05-27T06:37:44;28.00;85.60
11079;DHT22;5592;49.234;7.268;2023-05-27T06:40:10;28.40;86.00
11079;DHT22;5592;49.234;7.268;2023-05-27T06:42:37;28.50;81.30
11079;DHT22;5592;49.234;7.268;2023-05-27T06:45:05;28.80;80.00
11079;DHT22;5592;49.234;7.268;2023-05-27T06:47:31;28.50;79.50
11079;DHT22;5592;49.234;7.268;2023-05-27T06:49:57;28.40;80.30
11079;DHT22;5592;49.234;7.268;2023-05-27T06:52:22;28.40;78.20
11079;DHT22;5592;49.234;7.268;2023-05-27T06:54:48;28.70;80.30
11079;DHT22;5592;49.234;7.268;2023-05-27T06:57:14;29.10;76.50
11079;DHT22;5592;49.234;7.268;2023-05-27T06:59:40;29.50;78.00
11079;DHT22;5592;49.234;7.268;2023-05-27T07:02:06;30.10;75.50
11079;DHT22;5592;49.234;7.268;2023-05-27T07:04:32;29.80;72.50
11079;DHT22;5592;49.234;7.268;2023-05-27T07:06:58;29.80;75.20
11079;DHT22;5592;49.234;7.268;2023-05-27T07:09:24;29.90;71.60
11079;DHT22;5592;49.234;7.268;2023-05-27T07:11:50;29.90;70.10
11079;DHT22;5592;49.234;7.268;2023-05-27T07:14:15;30.10;71.90
11079;DHT22;5592;49.234;7.268;2023-05-27T07:16:41;30.40;67.70
11079;DHT22;5592;49.234;7.268;2023-05-27T07:19:07;30.90;67.40
11079;DHT22;5592;49.234;7.268;2023-05-27T07:21:33;31.10;71.90
11079;DHT22;5592;49.234;7.268;2023-05-27T07:24:00;31.50;67.80
11079;DHT22;5592;49.234;7.268;2023-05-27T07:26:32;32.10;67.80
11079;DHT22;5592;49.234;7.268;2023-05-27T07:28:59;32.00;68.50
11079;DHT22;5592;49.234;7.268;2023-05-27T07:31:26;31.50;66.10
11079;DHT22;5592;49.234;7.268;2023-05-27T07:33:52;31.10;66.00
11079;DHT22;5592;49.234;7.268;2023-05-27T07:36:18;30.90;63.40
11079;DHT22;5592;49.234;7.268;2023-05-27T07:38:43;30.60;67.30
11079;DHT22;5592;49.234;7.268;2023-05-27T07:41:10;30.10;63.00
11079;DHT22;5592;49.234;7.268;2023-05-27T07:43:35;29.90;66.70
11079;DHT22;5592;49.234;7.268;2023-05-27T07:46:02;30.70;67.40
11079;DHT22;5592;49.234;7.268;2023-05-27T07:48:28;30.60;64.50
11079;DHT22;5592;49.234;7.268;2023-05-27T07:50:54;30.60;63.90
11079;DHT22;5592;49.234;7.268;2023-05-27T07:53:20;31.00;63.40
11079;DHT22;5592;49.234;7.268;2023-05-27T07:55:46;30.90;64.70
11079;DHT22;5592;49.234;7.268;2023-05-27T07:58:12;31.40;60.40
11079;DHT22;5592;49.234;7.268;2023-05-27T08:00:37;31.60;63.60
11079;DHT22;5592;49.234;7.268;2023-05-27T08:03:03;31.70;63.00
11079;DHT22;5592;49.234;7.268;2023-05-27T08:05:29;31.80;59.30
11079;DHT22;5592;49.234;7.268;2023-05-27T08:07:54;32.10;59.50
11079;DHT22;5592;49.234;7.268;2023-05-27T08:10:20;32.30;58.30
11079;DHT22;5592;49.234;7.268;2023-05-27T08:12:46;32.00;58.70
11079;DHT22;5592;49.234;7.268;2023-05-27T08:15:11;31.40;60.80
11079;DHT22;5592;49.234;7.268;2023-05-27T08:17:37;31.70;59.60
11079;DHT22;5592;49.234;7.268;2023-05-27T08:20:04;32.40;60.40
11079;DHT22;5592;49.234;7.268;2023-05-27T08:22:30;32.50;58.90
11079;DHT22;5592;49.234;7.268;2023-05-27T08:24:55;32.20;57.70
11079;DHT22;5592;49.234;7.268;2023-05-27T08:27:41;32.50;60.60
11079;DHT22;5592;49.234;7.268;2023-05-27T08:30:08;32.40;57.80
11079;DHT22;5592;49.234;7.268;2023-05-27T08:32:33;33.20;57.40
11079;DHT22;5592;49.234;7.268;2023-05-27T08:34:59;33.00;57.00
11079;DHT22;5592;49.234;7.268;2023-05-27T08:37:25;32.80;56.50
11079;DHT22;5592;49.234;7.268;2023-05-27T08:39:51;32.30;59.40
11079;DHT22;5592;49.234;7.268;2023-05-27T08:42:16;32.20;58.10
11079;DHT22;5592;49.234;7.268;2023-05-27T08:44:42;31.90;57.80
11079;DHT22;5592;49.234;7.268;2023-05-27T08:47:09;32.20;57.80
11079;DHT22;5592;49.234;7.268;2023-05-27T08:49:34;32.60;57.80
11079;DHT22;5592;49.234;7.268;2023-05-27T08:52:01;32.40;56.10
11079;DHT22;5592;49.234;7.268;2023-05-27T08:54:28;31.00;57.60
11079;DHT22;5592;49.234;7.268;2023-05-27T08:56:55;30.00;58.60
11079;DHT22;5592;49.234;7.268;2023-05-27T08:59:24;30.40;59.70
11079;DHT22;5592;49.234;7.268;2023-05-27T09:01:50;31.00;62.80
11079;DHT22;5592;49.234;7.268;2023-05-27T09:04:16;31.00;59.80
11079;DHT22;5592;49.234;7.268;2023-05-27T09:06:42;31.50;61.60
11079;DHT22;5592;49.234;7.268;2023-05-27T09:09:08;32.10;61.40
11079;DHT22;5592;49.234;7.268;2023-05-27T09:11:39;32.80;59.20
11079;DHT22;5592;49.234;7.268;2023-05-27T09:14:07;33.00;58.80
11079;DHT22;5592;49.234;7.268;2023-05-27T09:16:33;32.90;60.00
11079;DHT22;5592;49.234;7.268;2023-05-27T09:19:01;33.00;56.30
11079;DHT22;5592;49.234;7.268;2023-05-27T09:21:26;32.10;59.10
11079;DHT22;5592;49.234;7.268;2023-05-27T09:23:55;32.40;59.60
11079;DHT22;5592;49.234;7.268;2023-05-27T09:26:22;32.20;59.50
11079;DHT22;5592;49.234;7.268;2023-05-27T09:28:48;32.60;59.30
11079;DHT22;5592;49.234;7.268;2023-05-27T09:31:14;32.90;58.50
11079;DHT22;5592;49.234;7.268;2023-05-27T09:33:40;32.40;58.20
11079;DHT22;5592;49.234;7.268;2023-05-27T09:36:07;31.60;58.70
11079;DHT22;5592;49.234;7.268;2023-05-27T09:38:35;31.20;59.50
11079;DHT22;5592;49.234;7.268;2023-05-27T09:41:02;31.00;59.20
11079;DHT22;5592;49.234;7.268;2023-05-27T09:43:29;31.10;61.50
11079;DHT22;5592;49.234;7.268;2023-05-27T09:45:59;31.40;60.00
11079;DHT22;5592;49.234;7.268;2023-05-27T09:48:29;32.00;59.60
11079;DHT22;5592;49.234;7.268;2023-05-27T09:50:56;32.20;60.00
11079;DHT22;5592;49.234;7.268;2023-05-27T09:53:23;32.00;58.90
11079;DHT22;5592;49.234;7.268;2023-05-27T09:55:49;31.40;62.90
11079;DHT22;5592;49.234;7.268;2023-05-27T09:58:15;31.50;63.60
11079;DHT22;5592;49.234;7.268;2023-05-27T10:00:42;31.70;64.20
11079;DHT22;5592;49.234;7.268;2023-05-27T10:03:10;31.70;60.40
11079;DHT22;5592;49.234;7.268;2023-05-27T10:05:36;31.00;60.80
11079;DHT22;5592;49.234;7.268;2023-05-27T10:08:01;31.30;61.50
11079;DHT22;5592;49.234;7.268;2023-05-27T10:10:28;31.00;64.30
11079;DHT22;5592;49.234;7.268;2023-05-27T10:12:54;31.30;64.00
11079;DHT22;5592;49.234;7.268;2023-05-27T10:15:32;31.40;60.30
11079;DHT22;5592;49.234;7.268;2023-05-27T10:18:06;32.00;59.50
11079;DHT22;5592;49.234;7.268;2023-05-27T10:20:37;32.50;59.60
11079;DHT22;5592;49.234;7.268;2023-05-27T10:23:15;32.30;60.40
11079;DHT22;5592;49.234;7.268;2023-05-27T10:25:52;32.40;60.20
11079;DHT22;5592;49.234;7.268;2023-05-27T10:28:32;31.60;59.40
11079;DHT22;5592;49.234;7.268;2023-05-27T10:31:15;31.10;62.90
11079;DHT22;5592;49.234;7.268;2023-05-27T10:33:48;31.10;61.10
11079;DHT22;5592;49.234;7.268;2023-05-27T10:36:23;30.80;61.50
11079;DHT22;5592;49.234;7.268;2023-05-27T10:39:22;31.00;60.90
11079;DHT22;5592;49.234;7.268;2023-05-27T10:41:51;31.30;58.90
11079;DHT22;5592;49.234;7.268;2023-05-27T10:44:28;30.90;62.60
11079;DHT22;5592;49.234;7.268;2023-05-27T10:47:08;30.80;59.80
11079;DHT22;5592;49.234;7.268;2023-05-27T10:49:35;30.30;61.20
11079;DHT22;5592;49.234;7.268;2023-05-27T10:52:08;30.50;61.20
11079;DHT22;5592;49.234;7.268;2023-05-27T10:54:42;30.50;62.70
11079;DHT22;5592;49.234;7.268;2023-05-27T10:57:08;30.00;66.80
11079;DHT22;5592;49.234;7.268;2023-05-27T10:59:48;29.80;61.70
11079;DHT22;5592;49.234;7.268;2023-05-27T11:02:15;30.10;65.80
11079;DHT22;5592;49.234;7.268;2023-05-27T11:04:41;29.90;65.30
11079;DHT22;5592;49.234;7.268;2023-05-27T11:07:06;29.50;64.70
11079;DHT22;5592;49.234;7.268;2023-05-27T11:09:54;29.20;66.10
11079;DHT22;5592;49.234;7.268;2023-05-27T11:12:23;29.60;62.30
11079;DHT22;5592;49.234;7.268;2023-05-27T11:17:16;28.50;68.60
11079;DHT22;5592;49.234;7.268;2023-05-27T11:19:43;27.90;63.60
11079;DHT22;5592;49.234;7.268;2023-05-27T11:22:13;27.40;68.40
11079;DHT22;5592;49.234;7.268;2023-05-27T11:24:39;27.70;69.60
11079;DHT22;5592;49.234;7.268;2023-05-27T11:27:14;27.70;71.90
11079;DHT22;5592;49.234;7.268;2023-05-27T11:29:49;27.80;73.80
11079;DHT22;5592;49.234;7.268;2023-05-27T11:32:16;27.60;66.10
11079;DHT22;5592;49.234;7.268;2023-05-27T11:34:44;27.50;65.40
11079;DHT22;5592;49.234;7.268;2023-05-27T11:37:11;27.30;67.40
11079;DHT22;5592;49.234;7.268;2023-05-27T11:39:38;27.00;70.20
11079;DHT22;5592;49.234;7.268;2023-05-27T11:42:14;27.20;72.90
11079;DHT22;5592;49.234;7.268;2023-05-27T11:44:50;27.10;73.90
11079;DHT22;5592;49.234;7.268;2023-05-27T11:47:16;27.30;74.60
11079;DHT22;5592;49.234;7.268;2023-05-27T11:49:42;27.40;70.70
11079;DHT22;5592;49.234;7.268;2023-05-27T11:52:10;27.50;67.90
11079;DHT22;5592;49.234;7.268;2023-05-27T11:54:38;27.10;73.10
11079;DHT22;5592;49.234;7.268;2023-05-27T11:57:04;26.80;72.00
11079;DHT22;5592;49.234;7.268;2023-05-27T11:59:34;26.60;74.70
11079;DHT22;5592;49.234;7.268;2023-05-27T12:02:00;26.40;70.00
11079;DHT22;5592;49.234;7.268;2023-05-27T12:04:26;26.30;70.30
11079;DHT22;5592;49.234;7.268;2023-05-27T12:06:51;26.30;73.60
11079;DHT22;5592;49.234;7.268;2023-05-27T12:09:17;26.30;71.10
11079;DHT22;5592;49.234;7.268;2023-05-27T12:11:43;26.50;74.50
11079;DHT22;5592;49.234;7.268;2023-05-27T12:14:08;26.70;77.50
11079;DHT22;5592;49.234;7.268;2023-05-27T12:16:34;26.70;69.80
11079;DHT22;5592;49.234;7.268;2023-05-27T12:18:59;26.90;75.50
11079;DHT22;5592;49.234;7.268;2023-05-27T12:21:28;26.80;71.60
11079;DHT22;5592;49.234;7.268;2023-05-27T12:23:54;26.70;69.60
11079;DHT22;5592;49.234;7.268;2023-05-27T12:26:20;26.70;69.40
11079;DHT22;5592;49.234;7.268;2023-05-27T12:28:47;26.50;69.60
11079;DHT22;5592;49.234;7.268;2023-05-27T12:31:13;26.20;69.40
11079;DHT22;5592;49.234;7.268;2023-05-27T12:33:39;25.90;71.00
11079;DHT22;5592;49.234;7.268;2023-05-27T12:36:04;25.70;75.40
11079;DHT22;5592;49.234;7.268;2023-05-27T12:38:35;26.00;70.40
11079;DHT22;5592;49.234;7.268;2023-05-27T12:41:01;25.90;68.60
11079;DHT22;5592;49.234;7.268;2023-05-27T12:43:27;26.10;70.40
11079;DHT22;5592;49.234;7.268;2023-05-27T12:45:52;26.10;67.80
11079;DHT22;5592;49.234;7.268;2023-05-27T12:48:18;26.10;69.70
11079;DHT22;5592;49.234;7.268;2023-05-27T12:50:44;26.00;69.50
11079;DHT22;5592;49.234;7.268;2023-05-27T12:53:10;26.10;69.70
11079;DHT22;5592;49.234;7.268;2023-05-27T12:55:36;26.10;67.80
11079;DHT22;5592;49.234;7.268;2023-05-27T12:58:05;26.00;67.20
11079;DHT22;5592;49.234;7.268;2023-05-27T13:00:31;25.80;68.50
11079;DHT22;5592;49.234;7.268;2023-05-27T13:02:59;25.70;68.90
11079;DHT22;5592;49.234;7.268;2023-05-27T13:05:24;25.70;68.90
11079;DHT22;5592;49.234;7.268;2023-05-27T13:08:03;25.40;69.70
11079;DHT22;5592;49.234;7.268;2023-05-27T13:10:33;25.10;68.80
11079;DHT22;5592;49.234;7.268;2023-05-27T13:13:00;25.00;72.20
11079;DHT22;5592;49.234;7.268;2023-05-27T13:15:27;24.90;69.80
11079;DHT22;5592;49.234;7.268;2023-05-27T13:17:53;25.00;69.10
11079;DHT22;5592;49.234;7.268;2023-05-27T13:20:23;25.20;66.70
11079;DHT22;5592;49.234;7.268;2023-05-27T13:22:49;25.00;68.20
11079;DHT22;5592;49.234;7.268;2023-05-27T13:25:15;25.20;70.20
11079;DHT22;5592;49.234;7.268;2023-05-27T13:27:41;25.10;69.40
11079;DHT22;5592;49.234;7.268;2023-05-27T13:30:10;25.20;70.70
11079;DHT22;5592;49.234;7.268;2023-05-27T13:32:36;25.20;69.20
11079;DHT22;5592;49.234;7.268;2023-05-27T13:35:02;25.00;67.80
11079;DHT22;5592;49.234;7.268;2023-05-27T13:37:28;24.80;70.00
11079;DHT22;5592;49.234;7.268;2023-05-27T13:39:54;24.60;71.90
11079;DHT22;5592;49.234;7.268;2023-05-27T13:42:20;24.50;69.60
11079;DHT22;5592;49.234;7.268;2023-05-27T13:44:46;24.40;69.60
11079;DHT22;5592;49.234;7.268;2023-05-27T13:47:12;24.40;69.80
11079;DHT22;5592;49.234;7.268;2023-05-27T13:49:39;24.60;71.50
11079;DHT22;5592;49.234;7.268;2023-05-27T13:52:05;24.80;70.00
11079;DHT22;5592;49.234;7.268;2023-05-27T13:54:32;24.90;69.60
11079;DHT22;5592;49.234;7.268;2023-05-27T13:56:57;24.90;70.40
11079;DHT22;5592;49.234;7.268;2023-05-27T13:59:23;24.90;68.30
11079;DHT22;5592;49.234;7.268;2023-05-27T14:01:48;25.00;70.40
11079;DHT22;5592;49.234;7.268;2023-05-27T14:04:17;24.80;70.60
11079;DHT22;5592;49.234;7.268;2023-05-27T14:06:43;24.60;70.40
11079;DHT22;5592;49.234;7.268;2023-05-27T14:09:08;24.50;71.40
11079;DHT22;5592;49.234;7.268;2023-05-27T14:11:34;24.30;71.80
11079;DHT22;5592;49.234;7.268;2023-05-27T14:14:00;24.20;72.90
11079;DHT22;5592;49.234;7.268;2023-05-27T14:16:25;24.40;73.50
11079;DHT22;5592;49.234;7.268;2023-05-27T14:18:51;24.60;73.50
11079;DHT22;5592;49.234;7.268;2023-05-27T14:21:17;24.60;71.50
11079;DHT22;5592;49.234;7.268;2023-05-27T14:23:44;24.60;73.70
11079;DHT22;5592;49.234;7.268;2023-05-27T14:26:10;24.80;73.90
11079;DHT22;5592;49.234;7.268;2023-05-27T14:28:36;24.80;71.60
11079;DHT22;5592;49.234;7.268;2023-05-27T14:31:02;24.60;70.20
11079;DHT22;5592;49.234;7.268;2023-05-27T14:33:28;24.60;73.90
11079;DHT22;5592;49.234;7.268;2023-05-27T14:35:53;24.60;72.10
11079;DHT22;5592;49.234;7.268;2023-05-27T14:38:20;24.60;75.00
11079;DHT22;5592;49.234;7.268;2023-05-27T14:40:46;24.60;70.50
11079;DHT22;5592;49.234;7.268;2023-05-27T14:43:13;24.70;71.80
11079;DHT22;5592;49.234;7.268;2023-05-27T14:45:40;24.80;70.90
11079;DHT22;5592;49.234;7.268;2023-05-27T14:48:06;24.80;70.60
11079;DHT22;5592;49.234;7.268;2023-05-27T14:50:32;24.80;72.40
11079;DHT22;5592;49.234;7.268;2023-05-27T14:52:59;24.60;69.60
11079;DHT22;5592;49.234;7.268;2023-05-27T14:55:24;24.50;69.20
11079;DHT22;5592;49.234;7.268;2023-05-27T14:57:51;24.40;70.00
11079;DHT22;5592;49.234;7.268;2023-05-27T15:00:16;24.30;70.80
11079;DHT22;5592;49.234;7.268;2023-05-27T15:02:42;24.30;69.80
11079;DHT22;5592;49.234;7.268;2023-05-27T15:05:08;24.40;69.40
11079;DHT22;5592;49.234;7.268;2023-05-27T15:07:36;24.40;68.20
11079;DHT22;5592;49.234;7.268;2023-05-27T15:10:02;24.40;70.30
11079;DHT22;5592;49.234;7.268;2023-05-27T15:12:43;24.50;70.20
11079;DHT22;5592;49.234;7.268;2023-05-27T15:15:17;24.50;71.50
11079;DHT22;5592;49.234;7.268;2023-05-27T15:17:42;24.60;69.70
11079;DHT22;5592;49.234;7.268;2023-05-27T15:20:14;24.40;67.70
11079;DHT22;5592;49.234;7.268;2023-05-27T15:22:40;24.20;68.70
11079;DHT22;5592;49.234;7.268;2023-05-27T15:25:06;24.30;69.30
11079;DHT22;5592;49.234;7.268;2023-05-27T15:27:32;24.20;68.80
11079;DHT22;5592;49.234;7.268;2023-05-27T15:29:57;24.20;68.10
11079;DHT22;5592;49.234;7.268;2023-05-27T15:32:23;24.20;71.60
11079;DHT22;5592;49.234;7.268;2023-05-27T15:34:49;24.20;68.50
11079;DHT22;5592;49.234;7.268;2023-05-27T15:37:18;24.10;73.10
11079;DHT22;5592;49.234;7.268;2023-05-27T15:39:44;24.10;71.90
11079;DHT22;5592;49.234;7.268;2023-05-27T15:42:09;24.00;68.70
11079;DHT22;5592;49.234;7.268;2023-05-27T15:44:35;24.00;71.20
11079;DHT22;5592;49.234;7.268;2023-05-27T15:47:00;23.90;70.80
11079;DHT22;5592;49.234;7.268;2023-05-27T15:49:26;23.90;72.70
11079;DHT22;5592;49.234;7.268;2023-05-27T15:51:52;23.90;73.00
11079;DHT22;5592;49.234;7.268;2023-05-27T15:54:18;23.80;74.10
11079;DHT22;5592;49.234;7.268;2023-05-27T15:56:43;23.90;73.30
11079;DHT22;5592;49.234;7.268;2023-05-27T15:59:10;23.90;72.90